Time;durP1;ratioP1;P1;durP2;ratioP2;P2;SDS_P1;SDS_P2;PMS_P1;PMS_P2;Temp;Humidity;BMP_temperature;BMP_pressure;BME280_temperature;BME280_humidity;BME280_pressure;Samples;Min_cycle;Max_cycle;Signal;HPM_P1;HPM_P2
2021/05/23 00:01:08;;;;;;;2.10;1.40;;;10.60;97.30;;;;;;4955739;28;20562;-87
2021/05/23 00:03:33;;;;;;;2.63;1.80;;;10.60;97.30;;;;;;4955832;28;20214;-88
2021/05/23 00:06:00;;;;;;;1.40;1.40;;;10.60;97.30;;;;;;4956419;28;20206;-87
2021/05/23 00:08:26;;;;;;;1.47;1.40;;;10.60;97.30;;;;;;4958544;28;20772;-87
2021/05/23 00:10:57;;;;;;;1.83;1.30;;;10.50;97.30;;;;;;4974229;28;20425;-87
2021/05/23 00:13:26;;;;;;;3.63;1.63;;;10.50;97.30;;;;;;4957569;28;20413;-88
2021/05/23 00:15:59;;;;;;;2.80;1.67;;;10.40;97.30;;;;;;4958409;28;20478;-87
2021/05/23 00:18:26;;;;;;;2.30;1.60;;;10.40;97.30;;;;;;4957326;28;20430;-88
2021/05/23 00:20:53;;;;;;;3.23;1.47;;;10.40;97.30;;;;;;4940389;28;20457;-88
2021/05/23 00:23:18;;;;;;;3.23;1.47;;;10.40;97.30;;;;;;4972829;28;20788;-88
2021/05/23 00:25:44;;;;;;;1.77;1.70;;;10.30;97.30;;;;;;4953965;28;20442;-87
2021/05/23 00:28:10;;;;;;;1.67;1.57;;;10.30;97.30;;;;;;4954841;28;20650;-88
2021/05/23 00:30:36;;;;;;;1.67;1.67;;;10.30;97.30;;;;;;4954846;28;20548;-88
2021/05/23 00:33:04;;;;;;;2.00;1.47;;;10.20;97.30;;;;;;4954984;28;20442;-88
2021/05/23 00:35:31;;;;;;;2.30;1.60;;;10.20;97.30;;;;;;4954307;28;20524;-88
2021/05/23 00:37:56;;;;;;;1.83;1.67;;;10.20;97.30;;;;;;4957498;28;20437;-88
2021/05/23 00:40:22;;;;;;;2.63;1.70;;;10.20;97.30;;;;;;4958577;28;20436;-88
2021/05/23 00:42:47;;;;;;;2.33;1.47;;;10.20;97.30;;;;;;4959240;28;20269;-88
2021/05/23 00:45:15;;;;;;;1.63;1.40;;;10.20;97.30;;;;;;4960116;28;20238;-88
2021/05/23 00:47:42;;;;;;;3.90;1.70;;;10.10;97.30;;;;;;4960193;28;20256;-88
2021/05/23 00:50:10;;;;;;;4.30;1.57;;;10.10;97.30;;;;;;4978443;28;20429;-88
2021/05/23 00:52:36;;;;;;;4.60;1.70;;;10.10;97.30;;;;;;4961389;28;20421;-88
2021/05/23 00:55:03;;;;;;;3.60;1.80;;;10.10;97.30;;;;;;4961721;28;20442;-87
2021/05/23 00:57:29;;;;;;;2.87;1.80;;;10.10;97.30;;;;;;4961532;28;20970;-87
2021/05/23 00:59:54;;;;;;;1.60;1.40;;;10.10;97.30;;;;;;4961790;28;20426;-88
2021/05/23 01:02:40;;;;;;;2.67;1.70;;;10.10;97.30;;;;;;4961492;28;20414;-88
2021/05/23 01:05:07;;;;;;;2.53;1.70;;;10.10;97.30;;;;;;4960864;28;20194;-88
2021/05/23 01:07:32;;;;;;;1.90;1.70;;;10.10;97.30;;;;;;4958066;28;20548;-88
2021/05/23 01:10:06;;;;;;;2.80;1.70;;;10.10;97.30;;;;;;4958051;28;20507;-88
2021/05/23 01:12:52;;;;;;;3.20;1.70;;;10.10;97.30;;;;;;4958233;28;20178;-88
2021/05/23 01:15:27;;;;;;;3.97;1.60;;;10.10;97.30;;;;;;4957710;28;20955;-88
2021/05/23 01:17:53;;;;;;;3.43;1.53;;;10.10;97.30;;;;;;4975132;28;20413;-88
2021/05/23 01:20:26;;;;;;;3.27;1.93;;;10.20;97.30;;;;;;4957529;28;20422;-88
2021/05/23 01:23:03;;;;;;;2.37;1.90;;;10.20;97.30;;;;;;4957845;28;20518;-88
2021/05/23 01:25:30;;;;;;;2.07;1.47;;;10.20;97.30;;;;;;4958025;28;20434;-88
2021/05/23 01:27:56;;;;;;;2.50;1.70;;;10.20;97.30;;;;;;4959731;28;20462;-88
2021/05/23 01:30:31;;;;;;;4.77;1.70;;;10.20;97.30;;;;;;4958827;28;20418;-88
2021/05/23 01:32:58;;;;;;;4.13;1.70;;;10.20;97.30;;;;;;4957959;28;20425;-89
2021/05/23 01:35:31;;;;;;;1.73;1.50;;;10.20;97.30;;;;;;4958214;28;20537;-88
2021/05/23 01:38:00;;;;;;;1.80;1.60;;;10.20;97.30;;;;;;4998920;28;20410;-88
2021/05/23 01:40:31;;;;;;;3.37;1.80;;;10.20;97.30;;;;;;4971652;28;20433;-88
2021/05/23 01:42:57;;;;;;;2.93;1.80;;;10.30;97.30;;;;;;4959571;28;20406;-88
2021/05/23 01:45:23;;;;;;;3.57;1.83;;;10.30;97.30;;;;;;4960285;28;20831;-88
2021/05/23 01:47:49;;;;;;;3.37;1.70;;;10.30;97.30;;;;;;4977519;28;20968;-89
2021/05/23 01:50:15;;;;;;;2.27;1.60;;;10.20;97.30;;;;;;4960303;28;20489;-88
2021/05/23 01:52:57;;;;;;;2.13;1.70;;;10.20;97.30;;;;;;4959004;28;20858;-88
2021/05/23 01:55:24;;;;;;;2.53;1.60;;;10.20;97.30;;;;;;4958587;28;20923;-88
2021/05/23 01:57:50;;;;;;;2.30;1.80;;;10.20;97.30;;;;;;4958422;28;21170;-88
2021/05/23 02:00:19;;;;;;;1.80;1.80;;;10.20;97.30;;;;;;4958366;28;20425;-88
2021/05/23 02:02:45;;;;;;;4.37;1.90;;;10.20;97.30;;;;;;4958392;28;20820;-88
2021/05/23 02:05:11;;;;;;;2.90;1.57;;;10.20;97.30;;;;;;4957258;28;20465;-88
2021/05/23 02:07:38;;;;;;;2.37;1.77;;;10.20;97.30;;;;;;4958207;28;20202;-88
2021/05/23 02:10:08;;;;;;;3.00;1.80;;;10.10;97.30;;;;;;4958633;28;20426;-88
2021/05/23 02:12:34;;;;;;;2.10;1.50;;;10.20;97.30;;;;;;4958613;28;20450;-88
2021/05/23 02:15:01;;;;;;;2.90;1.63;;;10.10;97.30;;;;;;4958605;28;20433;-88
2021/05/23 02:17:27;;;;;;;2.80;1.77;;;10.10;97.30;;;;;;4958772;28;20281;-88
2021/05/23 02:19:52;;;;;;;3.10;1.97;;;10.10;97.30;;;;;;4958279;28;20454;-88
2021/05/23 02:22:18;;;;;;;5.30;1.50;;;10.20;97.30;;;;;;4958266;28;20210;-88
2021/05/23 02:24:44;;;;;;;2.13;1.50;;;10.20;97.30;;;;;;4959696;28;20285;-88
2021/05/23 02:27:10;;;;;;;2.27;2.00;;;10.20;97.30;;;;;;4959314;28;20310;-88
2021/05/23 02:29:36;;;;;;;3.40;1.67;;;10.20;97.30;;;;;;4976625;28;20410;-88
2021/05/23 02:32:05;;;;;;;1.70;1.47;;;10.20;97.30;;;;;;4959274;28;20525;-88
2021/05/23 02:34:31;;;;;;;4.27;2.03;;;10.20;97.30;;;;;;4958784;28;20743;-89
2021/05/23 02:36:58;;;;;;;2.13;1.70;;;10.10;97.30;;;;;;4957765;28;20418;-88
2021/05/23 02:39:23;;;;;;;4.50;1.50;;;10.10;97.30;;;;;;4957649;28;20279;-88
2021/05/23 02:41:49;;;;;;;1.60;1.40;;;10.10;97.30;;;;;;4957571;28;20462;-89
2021/05/23 02:44:14;;;;;;;4.57;1.90;;;10.10;97.30;;;;;;4957434;28;20238;-88
2021/05/23 02:46:42;;;;;;;1.90;1.40;;;10.00;97.30;;;;;;4957743;28;20190;-88
2021/05/23 02:49:07;;;;;;;1.90;1.67;;;10.00;97.30;;;;;;4957442;28;20349;-88
2021/05/23 02:51:33;;;;;;;2.33;1.60;;;10.00;97.30;;;;;;4957384;28;20457;-88
2021/05/23 02:54:01;;;;;;;3.30;1.67;;;10.00;97.30;;;;;;4973118;28;20186;-88
2021/05/23 03:00:15;;;;;;;2.70;1.63;;;9.90;97.30;;;;;;4946073;28;20448;-88
2021/05/23 03:03:16;;;;;;;1.83;1.70;;;9.90;97.30;;;;;;4955579;28;20422;-89
2021/05/23 03:05:43;;;;;;;4.03;1.80;;;9.90;97.30;;;;;;4907591;29;20442;-88
2021/05/23 03:08:09;;;;;;;5.90;1.63;;;9.80;97.30;;;;;;4938493;29;20470;-89
2021/05/23 03:10:54;;;;;;;3.50;1.57;;;9.80;97.30;;;;;;4938297;29;20426;-88
2021/05/23 03:13:46;;;;;;;8.70;1.93;;;9.80;97.30;;;;;;4956041;29;20193;-88
2021/05/23 03:16:50;;;;;;;;;;;;;;;;;;;;;
2021/05/23 03:19:59;;;;;;;1.70;1.70;;;9.70;97.30;;;;;;4954564;29;20418;-88
2021/05/23 03:22:24;;;;;;;2.07;1.93;;;9.70;97.30;;;;;;4936810;29;20430;-89
2021/05/23 03:24:50;;;;;;;2.60;1.77;;;9.70;97.30;;;;;;4936250;29;20427;-88
2021/05/23 03:27:16;;;;;;;4.20;1.70;;;9.70;97.30;;;;;;4936167;29;20207;-88
2021/05/23 03:29:42;;;;;;;3.33;1.70;;;9.70;97.30;;;;;;4953814;29;20214;-88
2021/05/23 03:32:07;;;;;;;2.97;1.90;;;9.70;97.30;;;;;;4935767;29;20415;-88
2021/05/23 03:34:33;;;;;;;2.03;1.83;;;9.70;97.30;;;;;;4953150;28;20198;-89
2021/05/23 03:36:58;;;;;;;3.30;1.90;;;9.70;97.30;;;;;;4936521;29;20184;-88
2021/05/23 03:39:24;;;;;;;4.03;1.97;;;9.70;97.30;;;;;;4938162;29;20174;-88
2021/05/23 03:41:50;;;;;;;2.30;1.80;;;9.70;97.30;;;;;;4936486;29;20175;-89
2021/05/23 03:44:40;;;;;;;2.47;1.70;;;9.70;97.30;;;;;;4936502;29;20219;-88
2021/05/23 03:47:08;;;;;;;3.03;1.80;;;9.70;97.30;;;;;;4895613;29;20208;-91
2021/05/23 03:49:41;;;;;;;3.00;1.93;;;9.70;97.30;;;;;;4897558;29;20441;-91
2021/05/23 03:52:09;;;;;;;2.10;1.63;;;9.80;97.30;;;;;;4898289;29;20425;-91
2021/05/23 03:54:34;;;;;;;2.73;1.90;;;9.80;97.30;;;;;;4914038;29;20987;-91
2021/05/23 03:57:00;;;;;;;1.67;1.60;;;9.80;97.30;;;;;;4897548;29;20425;-91
2021/05/23 03:59:28;;;;;;;2.50;1.67;;;9.90;97.30;;;;;;4913839;29;20514;-93
2021/05/23 04:01:54;;;;;;;4.20;1.83;;;9.90;97.30;;;;;;4896393;29;20188;-92
2021/05/23 04:04:22;;;;;;;8.23;1.77;;;9.90;97.30;;;;;;4896035;29;20426;-92
2021/05/23 04:06:49;;;;;;;3.00;1.83;;;9.90;97.30;;;;;;4896393;29;20177;-91
2021/05/23 04:09:17;;;;;;;2.50;2.30;;;9.90;97.30;;;;;;4900471;29;20503;-92
2021/05/23 04:11:49;;;;;;;4.17;2.00;;;9.90;97.30;;;;;;4917527;29;20416;-92
2021/05/23 04:14:15;;;;;;;10.47;2.60;;;10.00;97.30;;;;;;4919765;29;20448;-92
2021/05/23 04:16:41;;;;;;;3.60;1.97;;;10.00;97.30;;;;;;4919850;29;20481;-92
2021/05/23 04:19:08;;;;;;;3.10;2.27;;;10.00;97.30;;;;;;4901785;29;20185;-92
2021/05/23 04:21:35;;;;;;;3.40;1.90;;;10.10;97.30;;;;;;4901053;29;20603;-91
2021/05/23 04:24:01;;;;;;;3.10;1.80;;;10.10;97.30;;;;;;4900594;29;20473;-92
2021/05/23 04:26:29;;;;;;;3.27;2.33;;;10.10;97.30;;;;;;4901619;29;21047;-91
2021/05/23 04:28:54;;;;;;;7.10;2.10;;;10.00;97.30;;;;;;4900197;29;20995;-90
2021/05/23 04:31:22;;;;;;;2.90;1.80;;;10.00;97.30;;;;;;4917167;29;20430;-92
2021/05/23 04:33:48;;;;;;;6.40;2.07;;;10.10;97.30;;;;;;4901672;29;20181;-91
2021/05/23 04:36:13;;;;;;;2.90;1.60;;;10.10;97.30;;;;;;4902294;29;20452;-92
2021/05/23 04:38:39;;;;;;;3.40;2.13;;;10.20;97.30;;;;;;4901442;29;20188;-91
2021/05/23 04:41:04;;;;;;;3.00;1.73;;;10.30;97.30;;;;;;4901967;29;20317;-92
2021/05/23 04:43:30;;;;;;;4.60;1.80;;;10.40;97.30;;;;;;4900309;29;20667;-92
2021/05/23 04:45:55;;;;;;;3.27;1.80;;;10.50;97.30;;;;;;4898659;29;20497;-92
2021/05/23 04:48:21;;;;;;;3.87;1.70;;;10.60;97.30;;;;;;4914125;29;20205;-91
2021/05/23 04:50:46;;;;;;;2.77;1.50;;;10.70;97.30;;;;;;4914661;29;20648;-91
2021/05/23 04:53:12;;;;;;;4.80;1.97;;;10.80;97.30;;;;;;4914503;29;20188;-91
2021/05/23 04:55:37;;;;;;;2.00;1.67;;;10.80;97.30;;;;;;4914360;29;20205;-93
2021/05/23 04:58:03;;;;;;;3.20;1.57;;;10.90;97.30;;;;;;4913753;29;20517;-92
2021/05/23 05:00:29;;;;;;;1.70;1.60;;;10.90;97.30;;;;;;4899386;29;20273;-91
2021/05/23 05:02:55;;;;;;;4.60;1.70;;;11.00;97.30;;;;;;4914453;29;20456;-92
2021/05/23 05:05:20;;;;;;;4.67;1.73;;;11.00;97.30;;;;;;4895779;29;20757;-91
2021/05/23 05:07:46;;;;;;;5.43;1.90;;;11.00;97.30;;;;;;4896181;29;20206;-92
2021/05/23 05:10:12;;;;;;;7.00;2.07;;;11.00;97.30;;;;;;4896024;29;20178;-92
2021/05/23 05:25:47;;;;;;;2.30;2.03;;;11.60;97.30;;;;;;4933497;29;20464;-77
2021/05/23 05:28:13;;;;;;;3.20;1.83;;;11.60;97.30;;;;;;4933036;29;20470;-77
2021/05/23 05:30:39;;;;;;;2.37;1.80;;;11.60;97.30;;;;;;4934255;29;20223;-77
2021/05/23 05:33:05;;;;;;;2.50;1.90;;;11.60;97.30;;;;;;4934910;29;20436;-77
2021/05/23 05:35:30;;;;;;;3.30;1.90;;;11.70;97.30;;;;;;4933891;29;20176;-75
2021/05/23 05:37:56;;;;;;;3.93;1.67;;;11.70;97.30;;;;;;4933698;29;20243;-75
2021/05/23 05:40:22;;;;;;;2.43;2.23;;;11.80;97.30;;;;;;4935457;29;20184;-75
2021/05/23 05:42:47;;;;;;;3.10;1.80;;;11.80;97.30;;;;;;4933707;29;20250;-75
2021/05/23 05:45:13;;;;;;;3.27;1.93;;;11.90;97.30;;;;;;4935407;29;20176;-75
2021/05/23 05:47:39;;;;;;;5.57;1.90;;;12.00;97.30;;;;;;4932949;29;20203;-76
2021/05/23 05:50:05;;;;;;;4.87;1.83;;;12.10;97.20;;;;;;4926917;29;20443;-76
2021/05/23 05:52:31;;;;;;;3.90;1.90;;;12.20;97.20;;;;;;4933727;29;20210;-74
2021/05/23 05:54:56;;;;;;;5.00;1.50;;;12.20;96.70;;;;;;4934949;29;20493;-75
2021/05/23 05:57:22;;;;;;;4.13;1.97;;;12.20;96.10;;;;;;4934122;29;20640;-77
2021/05/23 05:59:48;;;;;;;3.33;1.80;;;12.20;96.50;;;;;;4932090;29;20278;-76
2021/05/23 06:02:15;;;;;;;8.43;2.10;;;12.20;96.40;;;;;;4932935;29;20586;-77
2021/05/23 06:04:41;;;;;;;4.40;1.97;;;12.30;96.20;;;;;;4933720;29;20187;-79
2021/05/23 06:07:06;;;;;;;7.20;1.80;;;12.30;95.60;;;;;;4935155;29;20507;-76
2021/05/23 06:09:32;;;;;;;2.67;1.60;;;12.40;95.80;;;;;;4932624;29;20416;-76
2021/05/23 06:11:58;;;;;;;7.57;1.93;;;12.50;95.60;;;;;;4932447;29;20238;-75
2021/05/23 06:14:23;;;;;;;3.77;1.80;;;12.50;95.50;;;;;;4931969;29;20179;-75
2021/05/23 06:16:49;;;;;;;4.60;1.97;;;12.60;95.60;;;;;;4932015;29;20184;-75
2021/05/23 06:19:15;;;;;;;4.50;2.10;;;12.70;95.80;;;;;;4932277;29;20659;-76
2021/05/23 06:21:40;;;;;;;7.60;1.77;;;12.70;94.80;;;;;;4932329;29;20210;-75
2021/05/23 06:24:06;;;;;;;3.17;1.80;;;12.70;94.80;;;;;;4932413;29;20607;-75
2021/05/23 06:26:32;;;;;;;4.93;1.90;;;12.70;95.40;;;;;;4933205;29;20207;-76
2021/05/23 06:28:58;;;;;;;5.57;2.10;;;12.80;95.60;;;;;;4933025;29;20455;-77
2021/05/23 06:31:24;;;;;;;2.13;1.70;;;12.90;95.60;;;;;;4933590;29;20242;-76
2021/05/23 06:33:49;;;;;;;5.00;1.97;;;12.90;94.70;;;;;;4933392;29;20279;-76
2021/05/23 06:36:15;;;;;;;4.43;1.80;;;13.00;94.80;;;;;;4933271;29;20428;-77
2021/05/23 06:38:41;;;;;;;2.23;1.60;;;13.00;95.10;;;;;;4934149;29;20193;-77
2021/05/23 06:41:07;;;;;;;4.30;1.70;;;13.10;95.00;;;;;;4934608;29;20782;-77
2021/05/23 06:43:38;;;;;;;4.30;1.53;;;13.20;94.30;;;;;;4934498;29;20187;-76
2021/05/23 06:46:05;;;;;;;6.53;1.80;;;13.20;93.90;;;;;;4934130;29;20211;-74
2021/05/23 06:48:30;;;;;;;1.80;1.60;;;13.30;94.00;;;;;;4933721;29;20455;-75
2021/05/23 06:50:57;;;;;;;6.03;1.73;;;13.40;93.60;;;;;;4934618;29;20451;-76
2021/05/23 06:53:23;;;;;;;4.40;1.90;;;13.50;94.20;;;;;;4933479;29;20709;-75
2021/05/23 06:55:48;;;;;;;4.07;1.63;;;13.50;94.20;;;;;;4949858;29;20416;-76
2021/05/23 06:58:14;;;;;;;2.97;1.90;;;13.70;93.80;;;;;;4950012;29;20180;-75
2021/05/23 07:00:39;;;;;;;1.97;1.47;;;13.70;92.70;;;;;;4933672;29;20215;-74
2021/05/23 07:03:07;;;;;;;2.83;1.53;;;13.90;94.40;;;;;;4949525;29;20188;-77
2021/05/23 07:05:33;;;;;;;4.00;1.90;;;14.00;92.30;;;;;;4933845;29;20208;-77
2021/05/23 07:07:58;;;;;;;3.20;1.77;;;14.00;92.90;;;;;;4933661;29;20471;-77
2021/05/23 07:10:24;;;;;;;3.57;1.63;;;14.10;92.70;;;;;;4934738;29;20227;-75
2021/05/23 07:12:49;;;;;;;4.63;1.70;;;14.10;92.60;;;;;;4948800;29;20195;-75
2021/05/23 07:15:15;;;;;;;2.63;1.67;;;14.10;93.10;;;;;;4934455;29;20172;-77
2021/05/23 07:17:41;;;;;;;5.47;1.70;;;14.10;92.10;;;;;;4948598;29;20199;-75
2021/05/23 07:20:08;;;;;;;3.43;1.73;;;14.10;92.40;;;;;;4931576;29;20186;-75
2021/05/23 07:22:34;;;;;;;4.83;1.93;;;14.10;92.70;;;;;;4929568;29;20207;-75
2021/05/23 07:25:00;;;;;;;2.07;1.40;;;14.20;92.20;;;;;;4933185;29;20479;-76
2021/05/23 07:27:26;;;;;;;2.53;1.80;;;14.30;91.70;;;;;;4933952;29;20214;-77
2021/05/23 07:29:54;;;;;;;2.80;1.80;;;14.40;90.80;;;;;;4933901;29;20428;-77
2021/05/23 07:32:27;;;;;;;3.70;1.60;;;14.40;90.60;;;;;;4934347;29;20927;-76
2021/05/23 07:34:53;;;;;;;2.93;1.53;;;14.40;89.90;;;;;;4935285;29;20412;-77
2021/05/23 07:37:19;;;;;;;3.80;1.80;;;14.50;90.10;;;;;;4934751;29;20789;-76
2021/05/23 07:39:45;;;;;;;5.10;1.53;;;14.60;90.90;;;;;;4934749;29;20427;-78
2021/05/23 07:42:11;;;;;;;1.93;1.27;;;14.60;91.20;;;;;;4934328;29;20203;-77
2021/05/23 07:44:41;;;;;;;4.10;1.63;;;14.60;89.40;;;;;;4936170;29;20191;-76
2021/05/23 07:47:09;;;;;;;3.13;2.10;;;14.50;89.80;;;;;;4934171;29;20448;-75
2021/05/23 07:49:40;;;;;;;5.53;2.60;;;14.60;90.50;;;;;;4933143;29;20422;-75
2021/05/23 07:52:11;;;;;;;2.73;1.93;;;14.80;90.30;;;;;;4933169;29;20447;-75
2021/05/23 07:54:39;;;;;;;2.73;1.87;;;15.00;90.10;;;;;;4932818;29;20431;-74
2021/05/23 07:57:06;;;;;;;2.50;1.90;;;15.30;90.40;;;;;;4933511;29;20414;-75
2021/05/23 07:59:32;;;;;;;3.20;1.60;;;15.50;89.40;;;;;;4933173;29;20507;-75
2021/05/23 08:01:59;;;;;;;2.50;1.53;;;15.60;88.00;;;;;;4933139;29;20571;-74
2021/05/23 08:04:25;;;;;;;3.00;1.70;;;15.50;88.10;;;;;;4932943;29;20671;-76
2021/05/23 08:06:51;;;;;;;5.53;1.40;;;15.50;87.80;;;;;;4932938;29;20446;-74
2021/05/23 08:09:16;;;;;;;5.60;1.50;;;15.60;88.60;;;;;;4933026;29;20738;-78
2021/05/23 08:11:42;;;;;;;1.90;1.23;;;15.60;86.90;;;;;;4927927;29;20212;-76
2021/05/23 08:14:08;;;;;;;4.77;1.60;;;15.50;87.90;;;;;;4933476;29;20180;-76
2021/05/23 08:16:34;;;;;;;5.07;1.63;;;15.40;87.50;;;;;;4932768;29;20210;-78
2021/05/23 08:19:00;;;;;;;3.00;1.40;;;15.30;86.80;;;;;;4932851;29;20467;-79
2021/05/23 08:21:26;;;;;;;4.33;1.50;;;15.20;87.40;;;;;;4933671;29;20199;-77
2021/05/23 08:23:51;;;;;;;2.33;1.20;;;15.20;87.70;;;;;;4931263;29;20679;-77
2021/05/23 08:26:17;;;;;;;1.50;1.30;;;15.30;87.30;;;;;;4931763;29;20275;-76
2021/05/23 08:28:42;;;;;;;4.63;1.47;;;15.40;87.80;;;;;;4931647;29;20196;-77
2021/05/23 08:31:09;;;;;;;2.40;1.40;;;15.70;87.80;;;;;;4931652;29;20203;-76
2021/05/23 08:33:35;;;;;;;2.10;1.23;;;15.90;86.80;;;;;;4931499;29;20568;-79
2021/05/23 08:36:01;;;;;;;5.40;1.57;;;16.00;86.10;;;;;;4931150;29;20482;-77
2021/05/23 08:38:26;;;;;;;2.50;1.50;;;15.90;86.40;;;;;;4931864;29;20191;-76
2021/05/23 08:40:52;;;;;;;6.20;1.67;;;15.90;85.60;;;;;;4930934;29;20252;-76
2021/05/23 08:43:20;;;;;;;2.97;1.50;;;15.90;86.10;;;;;;4933102;29;20648;-76
2021/05/23 08:45:48;;;;;;;2.10;1.40;;;15.60;85.10;;;;;;4931810;29;20715;-75
2021/05/23 08:48:17;;;;;;;3.70;1.50;;;15.30;85.70;;;;;;4932220;29;20470;-76
2021/05/23 08:50:42;;;;;;;2.37;1.30;;;15.10;86.70;;;;;;4931518;29;20443;-76
2021/05/23 08:53:08;;;;;;;5.73;2.17;;;15.00;86.70;;;;;;4931893;29;20924;-76
2021/05/23 08:55:38;;;;;;;3.07;1.60;;;15.00;86.50;;;;;;4931367;29;20184;-75
2021/05/23 08:58:03;;;;;;;1.80;1.40;;;15.00;86.90;;;;;;4934488;29;20168;-76
2021/05/23 09:00:29;;;;;;;2.70;2.20;;;15.00;86.70;;;;;;4934319;29;20441;-76
2021/05/23 09:03:03;;;;;;;2.80;1.50;;;15.00;86.60;;;;;;4934985;29;20511;-78
2021/05/23 09:05:44;;;;;;;1.90;1.50;;;14.90;87.60;;;;;;4934191;29;20172;-76
2021/05/23 09:08:39;;;;;;;6.50;1.80;;;14.90;88.50;;;;;;4934728;29;20463;-75
2021/05/23 09:11:05;;;;;;;5.87;1.80;;;14.80;87.70;;;;;;4926176;29;20455;-76
2021/05/23 09:13:36;;;;;;;4.30;1.53;;;14.80;87.60;;;;;;4935099;29;20424;-77
2021/05/23 09:16:09;;;;;;;3.10;1.67;;;14.80;87.20;;;;;;4934326;29;20446;-76
2021/05/23 09:18:52;;;;;;;1.83;1.80;;;14.80;86.80;;;;;;4934704;29;20519;-77
2021/05/23 09:21:37;;;;;;;3.97;3.17;;;14.80;87.20;;;;;;4935404;29;20455;-78
2021/05/23 09:24:05;;;;;;;3.60;2.00;;;14.90;87.40;;;;;;4929741;29;20502;-76
2021/05/23 09:26:40;;;;;;;2.73;1.33;;;15.30;87.30;;;;;;4934096;29;20438;-77
2021/05/23 09:29:08;;;;;;;3.03;1.60;;;15.60;86.10;;;;;;4934487;29;20833;-77
2021/05/23 09:31:34;;;;;;;2.50;1.60;;;15.80;85.30;;;;;;4933845;29;20447;-76
2021/05/23 09:34:00;;;;;;;1.70;1.50;;;16.00;85.50;;;;;;4951839;29;20416;-77
2021/05/23 09:36:26;;;;;;;4.10;1.97;;;16.20;83.60;;;;;;4934678;29;20428;-76
2021/05/23 09:38:59;;;;;;;1.90;1.70;;;16.30;83.30;;;;;;4929563;29;20192;-79
2021/05/23 09:41:27;;;;;;;2.10;1.50;;;16.10;83.60;;;;;;4928325;29;20459;-78
2021/05/23 09:44:17;;;;;;;2.83;1.77;;;16.10;84.40;;;;;;4922303;29;20567;-77
2021/05/23 09:47:07;;;;;;;2.80;1.60;;;16.20;84.30;;;;;;4951140;23;20510;-78
2021/05/23 09:49:43;;;;;;;2.27;1.70;;;16.30;85.00;;;;;;4942725;29;20489;-78
2021/05/23 09:52:14;;;;;;;2.43;1.40;;;16.20;83.10;;;;;;4945260;29;20553;-79
2021/05/23 09:55:00;;;;;;;4.93;1.90;;;15.80;85.20;;;;;;4955364;28;20396;-77
2021/05/23 09:57:27;;;;;;;2.50;1.87;;;15.60;88.40;;;;;;4961996;28;20476;-79
2021/05/23 10:00:03;;;;;;;1.70;1.50;;;15.50;89.10;;;;;;4964392;28;20923;-78
2021/05/23 10:02:29;;;;;;;5.83;1.83;;;15.30;88.90;;;;;;4954020;29;20505;-80
2021/05/23 10:05:02;;;;;;;2.73;1.50;;;15.30;88.40;;;;;;4954319;29;20430;-78
2021/05/23 10:07:33;;;;;;;6.30;1.90;;;15.30;86.40;;;;;;4954045;29;20973;-75
2021/05/23 10:09:59;;;;;;;2.23;1.47;;;15.70;88.10;;;;;;4955129;28;20426;-77
2021/05/23 10:12:25;;;;;;;2.20;1.50;;;16.10;86.00;;;;;;4954558;29;21036;-78
2021/05/23 10:14:51;;;;;;;3.50;2.17;;;16.20;84.30;;;;;;4955231;29;20419;-78
2021/05/23 10:17:17;;;;;;;3.80;1.70;;;16.10;83.30;;;;;;4955215;29;20427;-79
2021/05/23 10:19:46;;;;;;;1.83;1.47;;;15.90;84.30;;;;;;4954482;29;20175;-79
2021/05/23 10:22:11;;;;;;;2.60;2.10;;;16.20;84.80;;;;;;4954335;29;20822;-78
2021/05/23 10:24:43;;;;;;;2.30;1.50;;;16.30;84.40;;;;;;4955022;29;20588;-77
2021/05/23 10:27:12;;;;;;;4.83;2.20;;;16.00;83.40;;;;;;4954571;29;20262;-78
2021/05/23 10:29:43;;;;;;;4.57;1.60;;;15.90;84.30;;;;;;4955952;29;20814;-76
2021/05/23 10:32:14;;;;;;;2.10;1.63;;;15.60;84.30;;;;;;4947499;29;20477;-79
2021/05/23 10:34:47;;;;;;;3.90;1.40;;;15.50;84.40;;;;;;4939855;29;20777;-81
2021/05/23 10:37:17;;;;;;;2.90;1.77;;;15.40;84.90;;;;;;4955973;29;20493;-81
2021/05/23 10:39:51;;;;;;;4.40;1.90;;;15.50;85.70;;;;;;4956174;29;20415;-74
2021/05/23 10:42:28;;;;;;;3.00;1.53;;;15.50;86.10;;;;;;4944578;28;20453;-82
2021/05/23 10:44:56;;;;;;;1.37;1.33;;;15.70;86.10;;;;;;4965801;28;20426;-81
2021/05/23 10:47:30;;;;;;;1.50;1.30;;;15.90;85.60;;;;;;4958292;28;20899;-78
2021/05/23 10:49:59;;;;;;;2.90;1.70;;;15.90;84.90;;;;;;4966957;28;20500;-79
2021/05/23 10:52:28;;;;;;;3.33;1.63;;;16.00;85.20;;;;;;4956793;28;20443;-76
2021/05/23 10:54:57;;;;;;;2.10;1.60;;;15.90;85.30;;;;;;4954188;29;20422;-77
2021/05/23 10:57:23;;;;;;;2.10;1.50;;;15.80;85.30;;;;;;4956352;29;20411;-78
2021/05/23 11:00:04;;;;;;;1.67;1.63;;;15.70;85.60;;;;;;4955504;29;20512;-81
2021/05/23 11:02:42;;;;;;;1.67;1.63;;;15.50;86.10;;;;;;4939028;29;20210;-77
2021/05/23 11:05:13;;;;;;;3.03;1.33;;;15.80;86.30;;;;;;4953042;29;20799;-77
2021/05/23 11:07:39;;;;;;;1.90;1.50;;;15.90;85.60;;;;;;4953303;29;20457;-82
2021/05/23 11:10:18;;;;;;;2.40;1.57;;;16.20;86.30;;;;;;4952953;29;21007;-78
2021/05/23 11:12:58;;;;;;;2.63;1.20;;;16.50;84.90;;;;;;4956184;29;20510;-77
2021/05/23 11:15:26;;;;;;;2.73;1.50;;;16.40;84.70;;;;;;4956196;29;20430;-78
2021/05/23 11:17:54;;;;;;;4.23;1.50;;;16.50;85.30;;;;;;4954569;29;20451;-79
2021/05/23 11:20:25;;;;;;;2.13;1.43;;;16.40;85.60;;;;;;4953519;28;20422;-78
2021/05/23 11:22:56;;;;;;;3.17;1.53;;;16.00;84.80;;;;;;4953400;28;20422;-79
2021/05/23 11:25:21;;;;;;;1.60;1.40;;;15.90;85.70;;;;;;4953800;29;20435;-80
2021/05/23 11:28:00;;;;;;;1.20;1.07;;;16.00;86.30;;;;;;4955597;29;20469;-81
2021/05/23 11:30:37;;;;;;;4.30;1.60;;;16.00;85.70;;;;;;4956056;28;20609;-77
2021/05/23 11:33:09;;;;;;;1.40;1.27;;;15.90;85.30;;;;;;4962222;28;20454;-80
2021/05/23 11:35:41;;;;;;;2.03;1.40;;;16.10;84.30;;;;;;4954852;29;20415;-81
2021/05/23 11:38:08;;;;;;;1.63;1.27;;;16.20;83.90;;;;;;4954270;29;20427;-78
2021/05/23 11:40:42;;;;;;;2.07;1.40;;;16.50;85.20;;;;;;4953889;29;20466;-81
2021/05/23 11:43:08;;;;;;;1.50;1.40;;;16.40;84.00;;;;;;4954404;29;20421;-79
2021/05/23 11:45:34;;;;;;;1.50;1.30;;;16.30;85.30;;;;;;4954387;28;20414;-80
2021/05/23 11:48:06;;;;;;;1.87;1.40;;;16.30;85.00;;;;;;4956904;28;20833;-80
2021/05/23 11:50:31;;;;;;;2.10;1.27;;;16.30;85.60;;;;;;4959108;28;20202;-80
2021/05/23 11:52:58;;;;;;;5.13;1.30;;;16.50;86.10;;;;;;4959089;28;20469;-80
2021/05/23 11:55:26;;;;;;;1.93;1.47;;;16.60;85.10;;;;;;4964938;28;20174;-79
2021/05/23 11:58:03;;;;;;;1.60;1.53;;;16.70;84.30;;;;;;4958412;28;20458;-78
2021/05/23 12:00:28;;;;;;;2.97;1.50;;;16.90;84.60;;;;;;4955874;28;20978;-78
2021/05/23 12:02:59;;;;;;;3.57;1.30;;;17.00;84.40;;;;;;4955916;28;20428;-79
2021/05/23 12:05:48;;;;;;;2.47;1.40;;;16.70;84.00;;;;;;4959290;28;20196;-79
2021/05/23 12:08:28;;;;;;;1.30;1.20;;;16.20;85.10;;;;;;4963768;28;20465;-79
2021/05/23 12:11:07;;;;;;;2.00;1.60;;;16.00;85.90;;;;;;4976712;28;20855;-80
2021/05/23 12:13:57;;;;;;;2.33;1.40;;;15.80;86.40;;;;;;4959650;28;20445;-80
2021/05/23 12:16:28;;;;;;;1.40;1.33;;;15.70;86.80;;;;;;4973341;28;20430;-81
2021/05/23 12:18:58;;;;;;;2.33;1.80;;;15.50;87.30;;;;;;4960912;28;20430;-79
2021/05/23 12:21:29;;;;;;;5.80;1.50;;;15.30;87.80;;;;;;4958684;28;20988;-79
2021/05/23 12:23:56;;;;;;;5.77;2.50;;;15.30;88.50;;;;;;4977074;28;20432;-83
2021/05/23 12:26:26;;;;;;;4.93;2.10;;;15.30;89.00;;;;;;4964689;28;20464;-81
2021/05/23 12:28:53;;;;;;;2.40;1.43;;;15.40;89.30;;;;;;4962570;28;20507;-78
2021/05/23 12:31:21;;;;;;;2.37;1.70;;;15.50;87.20;;;;;;4971561;28;20473;-79
2021/05/23 12:33:55;;;;;;;2.50;1.80;;;16.00;86.90;;;;;;4982635;28;20418;-80
2021/05/23 12:36:25;;;;;;;3.60;1.93;;;16.50;86.10;;;;;;4966672;28;20509;-78
2021/05/23 12:39:07;;;;;;;2.53;1.77;;;16.80;85.40;;;;;;4965594;28;20449;-80
2021/05/23 12:41:46;;;;;;;2.30;1.70;;;16.80;83.50;;;;;;4957552;28;20516;-78
2021/05/23 12:44:23;;;;;;;7.90;2.10;;;16.60;84.10;;;;;;4958286;28;20668;-79
2021/05/23 12:46:49;;;;;;;4.00;1.90;;;16.50;85.20;;;;;;4954739;28;20560;-80
2021/05/23 12:49:23;;;;;;;4.00;1.83;;;16.60;86.10;;;;;;4955873;28;20548;-78
2021/05/23 12:51:52;;;;;;;1.97;1.70;;;16.80;84.60;;;;;;4949703;28;21062;-75
2021/05/23 12:54:29;;;;;;;2.60;1.80;;;17.10;83.70;;;;;;4956067;28;20434;-81
2021/05/23 12:57:05;;;;;;;2.50;2.10;;;17.40;83.30;;;;;;4958672;28;20417;-79
2021/05/23 13:00:48;;;;;;;3.53;2.00;;;17.30;82.70;;;;;;4954827;28;20421;-81
2021/05/23 13:03:29;;;;;;;2.87;1.83;;;17.10;83.20;;;;;;4956105;28;20564;-80
2021/05/23 13:06:00;;;;;;;2.00;1.70;;;17.00;83.80;;;;;;4958391;28;20433;-79
2021/05/23 13:08:31;;;;;;;5.73;1.70;;;17.00;84.20;;;;;;4958228;28;20465;-79
2021/05/23 13:10:56;;;;;;;2.30;1.40;;;17.00;82.80;;;;;;4957848;28;20445;-78
2021/05/23 13:13:22;;;;;;;1.53;1.43;;;17.20;83.50;;;;;;4958157;28;20515;-79
2021/05/23 13:15:47;;;;;;;1.47;1.37;;;17.50;82.80;;;;;;4957452;28;20178;-77